createdAt,value
2023-04-30T00:01:38.179Z,55.50
2023-04-30T00:04:08.299Z,56.14
2023-04-30T00:06:37.469Z,55.90
2023-04-30T00:09:06.941Z,56.11
2023-04-30T00:11:36.348Z,55.69
2023-04-30T00:14:05.419Z,56.20
2023-04-30T00:16:35.042Z,57.30
2023-04-30T00:19:04.615Z,64.11
2023-04-30T00:21:34.147Z,65.44
2023-04-30T00:24:03.800Z,64.89
2023-04-30T00:26:32.942Z,68.46
2023-04-30T00:29:02.089Z,70.50
2023-04-30T00:31:32.041Z,69.70
2023-04-30T00:34:01.332Z,71.37
2023-04-30T00:36:30.462Z,71.39
2023-04-30T00:39:00.230Z,74.71
2023-04-30T00:41:30.957Z,76.14
2023-04-30T00:44:00.531Z,77.81
2023-04-30T00:46:29.758Z,77.61
2023-04-30T00:49:01.340Z,78.44
2023-04-30T00:51:31.183Z,79.38
2023-04-30T00:54:04.905Z,79.15
2023-04-30T00:56:34.551Z,78.80
2023-04-30T00:59:03.694Z,77.48
2023-04-30T01:01:34.218Z,77.98
2023-04-30T01:04:03.603Z,77.44
2023-04-30T01:06:33.195Z,77.22
2023-04-30T01:09:02.863Z,77.58
2023-04-30T01:11:50.928Z,75.47
2023-04-30T01:14:34.696Z,75.62
2023-04-30T01:17:22.283Z,74.49
2023-04-30T01:19:52.269Z,73.93
2023-04-30T01:22:30.518Z,75.00
2023-04-30T01:25:23.260Z,75.12
2023-04-30T01:28:07.941Z,74.33
2023-04-30T01:30:39.725Z,72.89
2023-04-30T01:33:09.254Z,74.23
2023-04-30T01:36:10.072Z,73.71
2023-04-30T01:39:22.145Z,73.75
2023-04-30T01:42:18.211Z,73.35
2023-04-30T01:45:19.001Z,72.65
2023-04-30T01:47:59.454Z,72.43
2023-04-30T01:50:40.992Z,72.53
2023-04-30T01:53:15.498Z,70.25
2023-04-30T01:56:07.395Z,69.02
2023-04-30T01:58:39.299Z,68.56
2023-04-30T02:01:08.648Z,69.54
2023-04-30T02:03:38.122Z,67.70
2023-04-30T02:06:07.470Z,66.65
2023-04-30T02:08:36.960Z,66.56
2023-04-30T02:11:07.323Z,66.26
2023-04-30T02:13:37.473Z,65.99
2023-04-30T02:16:07.758Z,64.22
2023-04-30T02:18:37.027Z,66.61
2023-04-30T02:21:06.136Z,66.08
2023-04-30T02:23:35.430Z,65.18
2023-04-30T02:26:05.102Z,65.89
2023-04-30T02:28:34.573Z,67.13
2023-04-30T02:31:03.567Z,67.60
2023-04-30T02:33:32.962Z,66.49
2023-04-30T02:36:02.864Z,65.95
2023-04-30T02:38:32.178Z,63.12
2023-04-30T02:41:01.472Z,61.68
2023-04-30T02:43:30.682Z,62.39
2023-04-30T02:46:00.237Z,59.63
2023-04-30T02:48:29.488Z,61.22
2023-04-30T02:50:58.675Z,59.59
2023-04-30T02:53:28.139Z,61.23
2023-04-30T02:55:57.564Z,59.52
2023-04-30T02:58:27.848Z,59.71
2023-04-30T03:00:58.260Z,57.94
2023-04-30T03:03:28.059Z,57.50
2023-04-30T03:06:00.455Z,59.79
2023-04-30T03:08:30.070Z,59.07
2023-04-30T03:10:59.960Z,57.62
2023-04-30T03:13:29.593Z,58.32
2023-04-30T03:16:00.837Z,57.69
2023-04-30T03:18:31.075Z,56.62
2023-04-30T03:21:00.444Z,57.97
2023-04-30T03:23:30.561Z,55.91
2023-04-30T03:25:59.996Z,57.08
2023-04-30T03:28:29.115Z,55.97
2023-04-30T03:30:58.548Z,57.10
2023-04-30T03:33:28.550Z,55.75
2023-04-30T03:35:57.946Z,56.22
2023-04-30T03:38:27.738Z,55.19
2023-04-30T03:40:56.886Z,55.24
2023-04-30T03:43:26.266Z,58.92
2023-04-30T03:45:55.591Z,58.97
2023-04-30T03:48:25.732Z,54.34
2023-04-30T03:50:56.097Z,55.23
2023-04-30T03:53:27.581Z,55.22
2023-04-30T03:56:05.201Z,54.25
2023-04-30T03:58:34.582Z,52.86
2023-04-30T04:01:03.797Z,52.84
2023-04-30T04:03:35.586Z,53.93
2023-04-30T04:06:06.588Z,52.57
2023-04-30T04:08:35.856Z,51.87
2023-04-30T04:11:05.759Z,51.12
2023-04-30T04:13:35.202Z,50.51
2023-04-30T04:16:04.370Z,51.10
2023-04-30T04:18:33.820Z,49.24
2023-04-30T04:21:02.898Z,46.55
2023-04-30T04:23:33.350Z,47.04
2023-04-30T04:26:02.744Z,46.02
2023-04-30T04:28:32.185Z,45.32
2023-04-30T04:31:01.686Z,46.68
2023-04-30T04:33:31.148Z,44.95
2023-04-30T04:36:00.397Z,44.66
2023-04-30T04:38:29.651Z,45.28
2023-04-30T04:40:59.143Z,44.40
2023-04-30T04:43:29.211Z,44.12
2023-04-30T04:45:59.349Z,43.32
2023-04-30T04:48:28.451Z,43.51
2023-04-30T04:50:58.478Z,42.56
2023-04-30T04:53:27.819Z,41.66
2023-04-30T04:55:57.875Z,40.78
2023-04-30T04:58:28.169Z,41.92
2023-04-30T05:00:58.658Z,41.44
2023-04-30T05:03:29.844Z,40.19
2023-04-30T05:05:59.825Z,40.15
2023-04-30T05:08:29.140Z,42.59
2023-04-30T05:10:59.378Z,42.42
2023-04-30T05:13:28.517Z,40.51
2023-04-30T05:15:57.743Z,41.67
2023-04-30T05:18:27.161Z,42.14
2023-04-30T05:20:56.358Z,40.17
2023-04-30T05:23:25.855Z,39.65
2023-04-30T05:25:56.550Z,38.52
2023-04-30T05:28:26.511Z,39.92
2023-04-30T05:30:55.998Z,41.55
2023-04-30T05:33:25.682Z,38.78
2023-04-30T05:35:54.934Z,39.01
2023-04-30T05:38:24.471Z,39.10
2023-04-30T05:40:53.771Z,39.00
2023-04-30T05:43:22.707Z,38.39
2023-04-30T05:45:52.108Z,38.76
2023-04-30T05:48:21.507Z,36.20
2023-04-30T05:50:51.110Z,38.11
2023-04-30T05:53:20.752Z,36.46
2023-04-30T05:55:49.856Z,39.38
2023-04-30T05:58:19.599Z,37.33
2023-04-30T06:00:54.014Z,33.72
2023-04-30T06:03:23.603Z,36.17
2023-04-30T06:05:53.153Z,38.21
2023-04-30T06:08:22.410Z,33.64
2023-04-30T06:10:52.767Z,37.73
2023-04-30T06:13:22.391Z,34.31
2023-04-30T06:15:51.580Z,35.74
2023-04-30T06:18:21.575Z,36.08
2023-04-30T06:20:51.254Z,33.37
2023-04-30T06:23:20.832Z,35.82
2023-04-30T06:25:50.882Z,33.51
2023-04-30T06:28:20.328Z,36.14
2023-04-30T06:30:49.660Z,35.24
2023-04-30T06:33:18.690Z,32.41
2023-04-30T06:35:48.820Z,32.33
2023-04-30T06:38:21.176Z,33.83
2023-04-30T06:40:51.394Z,35.17
2023-04-30T06:43:20.615Z,34.11
2023-04-30T06:45:50.135Z,37.33
2023-04-30T06:48:19.781Z,38.64
2023-04-30T06:50:49.036Z,37.37
2023-04-30T06:53:19.325Z,37.95
2023-04-30T06:55:50.178Z,37.82
2023-04-30T06:58:21.067Z,37.83
2023-04-30T07:00:50.362Z,38.83
2023-04-30T07:03:19.862Z,37.73
2023-04-30T07:05:49.796Z,38.59
2023-04-30T07:08:18.902Z,41.20
2023-04-30T07:10:48.334Z,39.40
2023-04-30T07:13:17.734Z,38.90
2023-04-30T07:15:47.402Z,39.11
2023-04-30T07:18:17.558Z,38.11
2023-04-30T07:20:46.894Z,43.20
2023-04-30T07:23:17.108Z,40.10
2023-04-30T07:25:46.594Z,41.97
2023-04-30T07:28:16.193Z,38.92
2023-04-30T07:30:45.935Z,40.81
2023-04-30T07:33:15.783Z,40.42
2023-04-30T07:35:46.339Z,37.62
2023-04-30T07:38:16.351Z,42.08
2023-04-30T07:40:45.706Z,42.25
2023-04-30T07:43:15.350Z,38.96
2023-04-30T07:45:45.628Z,38.66
2023-04-30T07:48:15.252Z,39.44
2023-04-30T07:50:44.745Z,37.05
2023-04-30T07:53:13.973Z,38.39
2023-04-30T07:55:43.307Z,37.74
2023-04-30T07:58:12.999Z,37.05
2023-04-30T08:00:42.888Z,36.98
2023-04-30T08:03:13.453Z,37.99
2023-04-30T08:05:43.440Z,35.63
2023-04-30T08:08:12.580Z,37.29
2023-04-30T08:10:42.980Z,37.17
2023-04-30T08:13:12.525Z,37.66
2023-04-30T08:15:41.966Z,36.35
2023-04-30T08:18:11.791Z,35.05
2023-04-30T08:20:41.295Z,34.79
2023-04-30T08:23:10.593Z,35.99
2023-04-30T08:25:39.954Z,36.17
2023-04-30T08:28:10.267Z,35.32
2023-04-30T08:30:41.484Z,36.01
2023-04-30T08:33:11.207Z,34.33
2023-04-30T08:35:40.719Z,34.82
2023-04-30T08:38:10.078Z,36.77
2023-04-30T08:40:50.856Z,37.07
2023-04-30T08:43:21.753Z,36.56
2023-04-30T08:45:53.509Z,35.46
2023-04-30T08:48:25.133Z,37.11
2023-04-30T08:50:54.561Z,33.46
2023-04-30T08:53:24.047Z,37.83
2023-04-30T08:55:54.130Z,38.52
2023-04-30T08:58:23.577Z,38.11
2023-04-30T09:00:52.635Z,38.99
2023-04-30T09:03:24.809Z,38.34
2023-04-30T09:05:54.174Z,37.73
2023-04-30T09:08:52.323Z,37.18
2023-04-30T09:11:27.890Z,34.43
2023-04-30T09:13:59.994Z,35.59
2023-04-30T09:16:33.919Z,38.20
2023-04-30T09:19:04.168Z,37.98
2023-04-30T09:21:37.810Z,38.84
2023-04-30T09:24:07.950Z,35.58
2023-04-30T09:26:40.760Z,39.45
2023-04-30T09:29:11.514Z,37.47
2023-04-30T09:31:46.029Z,35.95
2023-04-30T09:34:16.459Z,35.97
2023-04-30T09:36:56.425Z,38.36
2023-04-30T09:39:26.003Z,37.19
2023-04-30T09:42:08.654Z,39.77
2023-04-30T09:44:42.889Z,40.32
2023-04-30T09:47:19.324Z,40.00
2023-04-30T09:49:53.566Z,39.60
2023-04-30T09:52:23.862Z,36.28
2023-04-30T09:54:53.600Z,37.86
2023-04-30T09:57:25.522Z,37.59
2023-04-30T09:59:56.064Z,35.52
2023-04-30T10:02:27.030Z,35.76
2023-04-30T10:04:59.844Z,37.92
2023-04-30T10:07:37.912Z,35.31
2023-04-30T10:10:12.458Z,35.01
2023-04-30T10:12:50.154Z,38.20
2023-04-30T10:15:27.032Z,35.68
2023-04-30T10:18:04.058Z,35.68
2023-04-30T10:20:40.678Z,36.92
2023-04-30T10:23:10.372Z,37.50
2023-04-30T10:25:42.164Z,39.14
2023-04-30T10:28:12.560Z,37.74
2023-04-30T10:30:46.992Z,34.72
2023-04-30T10:33:17.609Z,37.65
2023-04-30T10:35:49.775Z,33.11
2023-04-30T10:38:26.165Z,33.40
2023-04-30T10:41:01.091Z,33.96
2023-04-30T10:43:34.373Z,34.50
2023-04-30T10:46:05.246Z,36.54
2023-04-30T10:48:37.212Z,37.96
2023-04-30T10:51:07.326Z,36.83
2023-04-30T10:53:41.480Z,37.70
2023-04-30T10:56:11.100Z,39.28
2023-04-30T10:58:42.618Z,38.61
2023-04-30T11:01:16.712Z,35.77
2023-04-30T11:04:09.997Z,37.31
2023-04-30T11:06:55.286Z,36.56
2023-04-30T11:09:39.622Z,38.04
2023-04-30T11:12:17.632Z,36.35
2023-04-30T11:14:48.449Z,36.75
2023-04-30T11:17:29.870Z,36.46
2023-04-30T11:20:03.059Z,35.14
2023-04-30T11:22:37.072Z,34.80
2023-04-30T11:25:10.960Z,38.89
2023-04-30T11:27:45.887Z,38.38
2023-04-30T11:30:20.494Z,35.54
2023-04-30T11:32:51.453Z,34.06
2023-04-30T11:35:21.508Z,33.94
2023-04-30T11:37:50.930Z,34.19
2023-04-30T11:40:21.948Z,34.23
2023-04-30T11:42:52.240Z,34.72
2023-04-30T11:45:22.084Z,33.42
2023-04-30T11:47:53.498Z,33.79
2023-04-30T11:50:31.022Z,35.06
2023-04-30T11:53:06.272Z,33.56
2023-04-30T11:55:35.951Z,33.20
2023-04-30T11:58:06.080Z,33.09
2023-04-30T12:00:35.875Z,33.69
2023-04-30T12:03:09.960Z,33.94
2023-04-30T12:05:43.225Z,33.51
2023-04-30T12:08:14.249Z,33.28
2023-04-30T12:10:44.426Z,33.47
2023-04-30T12:13:18.152Z,34.11
2023-04-30T12:16:00.609Z,33.68
2023-04-30T12:18:30.268Z,34.26
2023-04-30T12:21:00.518Z,34.16
2023-04-30T12:23:30.087Z,34.18
2023-04-30T12:26:01.662Z,33.55
2023-04-30T12:28:31.034Z,34.01
2023-04-30T12:31:01.342Z,34.47
2023-04-30T12:33:34.479Z,35.10
2023-04-30T12:36:04.043Z,34.76
2023-04-30T12:38:33.229Z,34.79
2023-04-30T12:41:06.614Z,35.84
2023-04-30T12:43:36.083Z,35.43
2023-04-30T12:46:05.653Z,36.97
2023-04-30T12:48:48.999Z,37.52
2023-04-30T12:51:21.675Z,36.87
2023-04-30T12:53:51.104Z,36.26
2023-04-30T12:56:21.314Z,36.73
2023-04-30T12:58:52.242Z,36.78
2023-04-30T13:01:26.338Z,38.50
2023-04-30T13:03:56.189Z,37.60
2023-04-30T13:06:25.637Z,38.12
2023-04-30T13:08:58.662Z,37.60
2023-04-30T13:11:28.452Z,40.84
2023-04-30T13:13:58.005Z,39.20
2023-04-30T13:16:27.970Z,40.84
2023-04-30T13:18:57.758Z,39.97
2023-04-30T13:21:27.608Z,40.21
2023-04-30T13:23:58.482Z,41.42
2023-04-30T13:26:30.802Z,42.61
2023-04-30T13:29:00.860Z,43.30
2023-04-30T13:31:30.694Z,42.98
2023-04-30T13:33:59.935Z,43.74
2023-04-30T13:36:30.041Z,41.94
2023-04-30T13:39:00.032Z,43.99
2023-04-30T13:41:30.504Z,43.49
2023-04-30T13:44:01.111Z,43.82
2023-04-30T13:46:31.934Z,42.42
2023-04-30T13:49:01.293Z,43.37
2023-04-30T13:51:30.478Z,44.95
2023-04-30T13:54:00.459Z,45.04
2023-04-30T13:56:30.418Z,45.20
2023-04-30T13:58:59.940Z,45.86
2023-04-30T14:01:30.047Z,45.76
2023-04-30T14:04:00.325Z,44.51
2023-04-30T14:06:30.396Z,42.45
2023-04-30T14:08:59.750Z,43.62
2023-04-30T14:11:29.229Z,44.39
2023-04-30T14:13:59.207Z,43.16
2023-04-30T14:16:28.512Z,44.44
2023-04-30T14:18:57.946Z,44.35
2023-04-30T14:21:29.708Z,44.04
2023-04-30T14:23:59.381Z,43.65
2023-04-30T14:26:28.523Z,44.07
2023-04-30T14:28:58.610Z,44.55
2023-04-30T14:31:28.364Z,45.84
2023-04-30T14:33:58.005Z,45.83
2023-04-30T14:36:28.795Z,46.06
2023-04-30T14:38:58.080Z,45.65
2023-04-30T14:41:27.391Z,45.34
2023-04-30T14:43:57.149Z,43.76
2023-04-30T14:46:27.333Z,43.96
2023-04-30T14:48:57.010Z,44.21
2023-04-30T14:51:27.017Z,44.94
2023-04-30T14:53:56.690Z,43.62
2023-04-30T14:56:26.680Z,45.33
2023-04-30T14:58:55.707Z,43.65
2023-04-30T15:01:26.512Z,45.22
2023-04-30T15:03:57.523Z,45.75
2023-04-30T15:06:27.435Z,46.21
2023-04-30T15:08:57.352Z,45.59
2023-04-30T15:11:27.772Z,47.11
2023-04-30T15:13:57.329Z,45.15
2023-04-30T15:16:27.708Z,46.70
2023-04-30T15:18:56.888Z,48.84
2023-04-30T15:21:27.824Z,46.13
2023-04-30T15:23:57.678Z,46.49
2023-04-30T15:26:27.263Z,48.21
2023-04-30T15:28:59.657Z,46.73
2023-04-30T15:31:29.611Z,47.95
2023-04-30T15:33:58.754Z,46.88
2023-04-30T15:36:28.808Z,47.64
2023-04-30T15:38:58.225Z,48.26
2023-04-30T15:41:27.503Z,48.16
2023-04-30T15:43:57.268Z,47.78
2023-04-30T15:46:26.841Z,48.09
2023-04-30T15:48:56.411Z,48.29
2023-04-30T15:51:26.065Z,49.30
2023-04-30T15:53:55.672Z,48.17
2023-04-30T15:56:27.800Z,50.09
2023-04-30T15:58:57.628Z,50.83
2023-04-30T16:01:27.002Z,51.00
2023-04-30T16:03:57.272Z,50.59
2023-04-30T16:06:28.262Z,51.08
2023-04-30T16:08:58.616Z,51.12
2023-04-30T16:11:28.036Z,51.26
2023-04-30T16:13:57.550Z,51.83
2023-04-30T16:16:28.087Z,50.53
2023-04-30T16:18:58.224Z,51.54
2023-04-30T16:21:28.489Z,51.51
2023-04-30T16:23:58.605Z,51.01
2023-04-30T16:26:27.800Z,51.39
2023-04-30T16:28:57.242Z,51.18
2023-04-30T16:31:26.651Z,52.05
2023-04-30T16:33:58.616Z,52.76
2023-04-30T16:36:29.137Z,51.65
2023-04-30T16:38:58.656Z,52.55
2023-04-30T16:41:28.019Z,51.99
2023-04-30T16:43:58.130Z,50.09
2023-04-30T16:46:28.848Z,51.59
2023-04-30T16:48:59.436Z,52.86
2023-04-30T16:51:28.790Z,53.29
2023-04-30T16:53:57.925Z,53.21
2023-04-30T16:56:28.407Z,52.03
2023-04-30T16:58:58.052Z,52.61
2023-04-30T17:01:28.281Z,52.30
2023-04-30T17:03:58.074Z,53.69
2023-04-30T17:06:27.917Z,51.78
2023-04-30T17:08:58.177Z,53.97
2023-04-30T17:11:27.872Z,53.00
2023-04-30T17:13:59.416Z,52.52
2023-04-30T17:16:28.973Z,53.06
2023-04-30T17:18:58.492Z,51.72
2023-04-30T17:21:30.057Z,51.40
2023-04-30T17:24:00.216Z,51.09
2023-04-30T17:26:30.512Z,51.92
2023-04-30T17:29:00.509Z,53.08
2023-04-30T17:31:32.368Z,52.84
2023-04-30T17:34:01.982Z,51.88
2023-04-30T17:36:31.971Z,51.69
2023-04-30T17:39:05.210Z,51.64
2023-04-30T17:41:34.471Z,51.94
2023-04-30T17:44:04.254Z,52.05
2023-04-30T17:46:33.773Z,52.34
2023-04-30T17:49:04.746Z,51.07
2023-04-30T17:51:35.048Z,51.50
2023-04-30T17:54:04.685Z,51.16
2023-04-30T17:56:34.568Z,51.46
2023-04-30T17:59:05.251Z,51.40
2023-04-30T18:01:36.013Z,52.04
2023-04-30T18:04:10.198Z,52.21
2023-04-30T18:06:40.130Z,51.97
2023-04-30T18:09:10.920Z,51.07
2023-04-30T18:11:41.087Z,51.14
2023-04-30T18:14:10.941Z,51.82
2023-04-30T18:16:43.476Z,51.54
2023-04-30T18:19:14.124Z,52.37
2023-04-30T18:21:44.390Z,52.30
2023-04-30T18:24:14.673Z,52.13
2023-04-30T18:26:43.852Z,52.39
2023-04-30T18:29:17.720Z,52.98
2023-04-30T18:31:48.216Z,52.96
2023-04-30T18:34:18.207Z,52.44
2023-04-30T18:36:48.898Z,51.30
2023-04-30T18:39:18.647Z,52.84
2023-04-30T18:41:49.030Z,53.40
2023-04-30T18:44:19.358Z,53.06
2023-04-30T18:46:49.406Z,52.64
2023-04-30T18:49:19.764Z,53.08
2023-04-30T18:51:49.511Z,52.42
2023-04-30T18:54:19.365Z,53.50
2023-04-30T18:56:49.190Z,53.75
2023-04-30T18:59:20.580Z,52.42
2023-04-30T19:01:54.172Z,53.48
2023-04-30T19:04:24.237Z,53.70
2023-04-30T19:06:56.282Z,52.35
2023-04-30T19:09:28.630Z,51.71
2023-04-30T19:11:59.328Z,52.80
2023-04-30T19:14:29.773Z,53.31
2023-04-30T19:16:59.917Z,52.68
2023-04-30T19:19:30.784Z,52.55
2023-04-30T19:22:01.936Z,53.24
2023-04-30T19:24:32.842Z,53.25
2023-04-30T19:27:05.296Z,53.29
2023-04-30T19:29:36.567Z,53.50
2023-04-30T19:32:07.322Z,53.72
2023-04-30T19:34:37.578Z,53.64
2023-04-30T19:37:07.494Z,53.82
2023-04-30T19:39:37.863Z,54.11
2023-04-30T19:42:09.774Z,53.33
2023-04-30T19:44:39.962Z,53.42
2023-04-30T19:47:09.658Z,53.50
2023-04-30T19:49:39.226Z,53.09
2023-04-30T19:52:10.436Z,52.93
2023-04-30T19:54:40.135Z,53.20
2023-04-30T19:57:09.788Z,53.20
2023-04-30T19:59:39.089Z,53.40
2023-04-30T20:02:09.314Z,53.53
2023-04-30T20:04:39.198Z,53.29
2023-04-30T20:07:09.390Z,51.12
2023-04-30T20:09:38.734Z,53.86
2023-04-30T20:12:08.364Z,55.14
2023-04-30T20:14:37.696Z,55.78
2023-04-30T20:17:07.671Z,55.86
2023-04-30T20:19:37.225Z,56.99
2023-04-30T20:22:14.117Z,57.09
2023-04-30T20:24:46.444Z,57.21
2023-04-30T20:27:16.347Z,57.15
2023-04-30T20:29:45.938Z,57.63
2023-04-30T20:32:15.688Z,57.43
2023-04-30T20:34:44.983Z,57.05
2023-04-30T20:37:15.058Z,57.42
2023-04-30T20:39:44.902Z,57.37
2023-04-30T20:42:15.426Z,57.19
2023-04-30T20:44:45.124Z,57.21
2023-04-30T20:47:15.718Z,57.32
2023-04-30T20:49:45.004Z,57.42
2023-04-30T20:52:15.485Z,57.50
2023-04-30T20:54:45.809Z,57.74
2023-04-30T20:57:15.990Z,57.83
2023-04-30T20:59:45.802Z,56.62
2023-04-30T21:02:15.092Z,56.42
2023-04-30T21:04:45.025Z,57.18
2023-04-30T21:07:14.187Z,57.68
2023-04-30T21:09:44.036Z,57.51
2023-04-30T21:12:14.023Z,57.82
2023-04-30T21:14:43.719Z,58.36
2023-04-30T21:17:13.322Z,58.52
2023-04-30T21:19:43.263Z,57.93
2023-04-30T21:22:12.741Z,58.44
2023-04-30T21:24:41.978Z,58.76
2023-04-30T21:27:12.241Z,58.83
2023-04-30T21:29:44.971Z,59.21
2023-04-30T21:32:14.811Z,58.75
2023-04-30T21:34:45.114Z,59.15
2023-04-30T21:37:16.917Z,59.61
2023-04-30T21:39:47.438Z,59.02
2023-04-30T21:42:16.607Z,58.75
2023-04-30T21:44:46.028Z,59.44
2023-04-30T21:47:15.303Z,59.00
2023-04-30T21:49:44.416Z,59.46
2023-04-30T21:52:13.793Z,59.70
2023-04-30T21:54:43.508Z,58.24
2023-04-30T21:57:12.690Z,59.30
2023-04-30T21:59:43.047Z,59.73
2023-04-30T22:02:22.899Z,59.84
2023-04-30T22:04:54.575Z,58.78
2023-04-30T22:07:24.026Z,59.88
2023-04-30T22:09:53.757Z,60.10
2023-04-30T22:12:26.219Z,59.44
2023-04-30T22:14:56.973Z,60.03
2023-04-30T22:17:27.535Z,59.39
2023-04-30T22:19:58.425Z,60.84
2023-04-30T22:22:28.126Z,60.90
2023-04-30T22:24:57.728Z,61.35
2023-04-30T22:27:27.080Z,60.35
2023-04-30T22:29:56.971Z,61.09
2023-04-30T22:32:27.328Z,61.09
2023-04-30T22:34:56.665Z,61.39
2023-04-30T22:37:27.608Z,61.46
2023-04-30T22:39:57.190Z,61.58
2023-04-30T22:42:27.506Z,61.58
2023-04-30T22:44:57.087Z,61.27
2023-04-30T22:47:28.857Z,61.57
2023-04-30T22:49:58.738Z,62.16
2023-04-30T22:52:30.800Z,62.07
2023-04-30T22:55:03.132Z,61.71
2023-04-30T22:57:32.691Z,61.91
2023-04-30T23:00:01.959Z,62.90
2023-04-30T23:02:31.645Z,62.69
2023-04-30T23:05:00.727Z,62.66
2023-04-30T23:07:29.838Z,63.06
2023-04-30T23:09:59.717Z,63.65
2023-04-30T23:12:29.274Z,63.40
2023-04-30T23:14:59.970Z,63.73
2023-04-30T23:17:30.281Z,63.86
2023-04-30T23:19:59.675Z,63.16
2023-04-30T23:22:29.016Z,63.88
2023-04-30T23:24:58.210Z,63.75
2023-04-30T23:27:29.508Z,63.63
2023-04-30T23:29:58.848Z,63.17
2023-04-30T23:32:28.900Z,64.01
2023-04-30T23:34:58.958Z,64.11
2023-04-30T23:37:28.909Z,63.76
2023-04-30T23:39:58.819Z,63.83
2023-04-30T23:42:28.378Z,64.45
2023-04-30T23:44:57.454Z,64.14
2023-04-30T23:47:27.777Z,63.73
2023-04-30T23:49:57.880Z,63.88
2023-04-30T23:52:28.000Z,64.49
2023-04-30T23:54:58.030Z,64.21
2023-04-30T23:57:29.072Z,64.32
2023-04-30T23:59:59.723Z,64.29
